< < Back
Terminal Aerodrome Forecast


Current Version              Previous Versions:   1  2  3  4  5  6  7  8  9  

Terminal Aerodrome Forecast

928
FTUS44 KBMX 311700
TAFANB
TAF
KANB 311730Z 3118/0118 22010KT P6SM VCSH SCT025 BKN035
     FM312100 21010KT P6SM VCTS SCT035CB BKN050
     FM010100 00000KT P6SM BKN150
     FM010800 00000KT 4SM BR SCT025 SCT150
     FM011500 20007KT P6SM SCT025 BKN150=



Latest METAR

428
SAUS70 KWBC 011100 RRJ
MTRANB
METAR KANB 011053Z AUTO 00000KT 10SM CLR 22/21 A3011 RMK AO2 SLP186
T02220206


USA.gov is the U.S. government's official web portal to all federal, state and local government web resources and services.